Time;durP1;ratioP1;P1;durP2;ratioP2;P2;SDS_P1;SDS_P2;PMS_P1;PMS_P2;Temp;Humidity;BMP_temperature;BMP_pressure;BME280_temperature;BME280_humidity;BME280_pressure;Samples;Min_cycle;Max_cycle;Signal;HPM_P1;HPM_P2
2023/07/29 00:00:34;;;;;;;38.78;24.77;;;;;;;28.41;100.00;97324.88;4806581;29;20376;-64
2023/07/29 00:03:04;;;;;;;36.92;25.65;;;;;;;28.44;100.00;97335.06;4801599;29;20062;-63
2023/07/29 00:05:34;;;;;;;34.53;23.42;;;;;;;28.48;100.00;97333.25;4803254;29;20383;-62
2023/07/29 00:08:03;;;;;;;35.75;24.55;;;;;;;28.47;100.00;97337.09;4805211;29;20055;-64
2023/07/29 00:10:35;;;;;;;36.60;23.65;;;;;;;28.42;100.00;97340.84;4804819;29;20054;-65
2023/07/29 00:13:06;;;;;;;35.95;24.52;;;;;;;28.45;100.00;97345.63;4802733;29;20051;-64
2023/07/29 00:15:36;;;;;;;36.17;24.85;;;;;;;28.45;100.00;97348.34;4801400;29;20108;-64
2023/07/29 00:18:05;;;;;;;37.90;25.13;;;;;;;28.48;100.00;97355.03;4841285;29;20483;-64
2023/07/29 00:20:34;;;;;;;35.10;24.13;;;;;;;28.48;100.00;97365.94;4832656;29;20148;-64
2023/07/29 00:23:03;;;;;;;36.63;25.67;;;;;;;28.43;100.00;97366.94;4839290;29;20053;-63
2023/07/29 00:25:33;;;;;;;38.50;24.50;;;;;;;28.43;100.00;97361.50;4826571;29;20376;-64
2023/07/29 00:28:02;;;;;;;36.70;24.27;;;;;;;28.47;100.00;97361.59;4815746;29;20100;-65
2023/07/29 00:30:31;;;;;;;35.53;24.33;;;;;;;28.45;100.00;97364.69;4807494;29;20049;-64
2023/07/29 00:33:00;;;;;;;35.58;24.42;;;;;;;28.49;100.00;97367.53;4821612;29;20060;-65
2023/07/29 00:35:30;;;;;;;32.67;22.98;;;;;;;28.45;100.00;97372.06;4822876;29;20061;-62
2023/07/29 00:38:00;;;;;;;36.72;23.95;;;;;;;28.40;100.00;97377.75;4822879;29;20053;-62
2023/07/29 00:40:31;;;;;;;37.58;23.80;;;;;;;28.40;100.00;97383.19;4823812;29;20435;-62
2023/07/29 00:43:00;;;;;;;34.95;23.15;;;;;;;28.43;100.00;97390.66;4840465;29;20292;-62
2023/07/29 00:45:31;;;;;;;37.28;24.58;;;;;;;28.48;100.00;97396.69;4842949;29;20773;-62
2023/07/29 00:48:02;;;;;;;33.10;23.15;;;;;;;28.45;100.00;97394.66;4830374;29;20054;-64
2023/07/29 00:50:33;;;;;;;34.75;24.10;;;;;;;28.48;100.00;97396.69;4823579;29;20057;-62
2023/07/29 00:53:03;;;;;;;35.00;22.98;;;;;;;28.38;100.00;97404.50;4832154;29;20071;-62
2023/07/29 00:55:33;;;;;;;32.10;22.83;;;;;;;28.41;100.00;97407.34;4830266;29;20562;-62
2023/07/29 00:58:03;;;;;;;35.35;23.67;;;;;;;28.41;100.00;97404.63;4826633;29;20050;-62
2023/07/29 01:00:33;;;;;;;33.70;22.95;;;;;;;28.48;100.00;97407.59;4834056;29;20053;-62
2023/07/29 01:03:05;;;;;;;34.75;23.38;;;;;;;28.52;100.00;97407.69;4832393;29;20481;-62
2023/07/29 01:05:50;;;;;;;31.70;22.13;;;;;;;28.54;100.00;97413.63;4831516;29;20623;-63
2023/07/29 01:08:35;;;;;;;34.63;23.63;;;;;;;28.54;100.00;97414.41;4830115;29;20561;-62
2023/07/29 01:11:25;;;;;;;32.25;22.48;;;;;;;28.58;100.00;97412.59;4834724;29;20053;-62
2023/07/29 01:14:34;;;;;;;32.42;23.10;;;;;;;28.62;100.00;97423.59;4842574;29;20077;-63
2023/07/29 01:17:09;;;;;;;29.98;21.20;;;;;;;28.61;100.00;97424.72;4768965;29;20054;-63
2023/07/29 01:20:06;;;;;;;29.88;21.48;;;;;;;28.62;100.00;97425.53;4822129;29;20554;-63
2023/07/29 01:22:37;;;;;;;28.75;20.88;;;;;;;28.62;100.00;97436.44;4844484;29;20160;-63
2023/07/29 01:25:06;;;;;;;29.88;20.48;;;;;;;28.63;100.00;97457.09;4840369;29;20061;-62
2023/07/29 01:27:36;;;;;;;20.02;14.70;;;;;;;28.14;100.00;97459.75;4832989;29;20371;-63
2023/07/29 01:30:06;;;;;;;14.48;11.38;;;;;;;27.88;100.00;97470.06;4843784;29;20061;-63
2023/07/29 01:32:51;;;;;;;11.73;8.88;;;;;;;27.47;100.00;97477.13;4816882;29;20066;-62
2023/07/29 01:35:42;;;;;;;7.97;6.50;;;;;;;27.24;100.00;97475.84;4826062;29;20679;-63
2023/07/29 01:38:36;;;;;;;8.48;6.18;;;;;;;26.96;100.00;97458.41;4832670;29;20132;-62
2023/07/29 01:41:08;;;;;;;8.13;5.78;;;;;;;27.01;100.00;97469.91;4821774;29;20065;-62
2023/07/29 01:43:43;;;;;;;6.80;5.15;;;;;;;26.90;100.00;97465.19;4818813;29;20474;-63
2023/07/29 01:46:16;;;;;;;9.60;5.45;;;;;;;26.97;100.00;97474.41;4831374;29;20050;-63
2023/07/29 01:48:48;;;;;;;5.47;4.50;;;;;;;26.60;100.00;97481.44;4832902;29;20056;-63
2023/07/29 01:51:17;;;;;;;5.32;4.70;;;;;;;26.55;100.00;97484.34;4826757;29;20053;-62
2023/07/29 01:53:47;;;;;;;5.35;4.10;;;;;;;26.52;100.00;97481.47;4826763;29;20053;-62
2023/07/29 01:56:16;;;;;;;6.13;3.88;;;;;;;26.67;100.00;97467.34;4840781;29;20054;-63
2023/07/29 01:58:53;;;;;;;4.82;3.72;;;;;;;26.49;100.00;97452.25;4833292;29;20387;-63
2023/07/29 02:01:22;;;;;;;8.15;3.78;;;;;;;26.49;100.00;97444.09;4835995;29;20053;-63
2023/07/29 02:03:55;;;;;;;3.50;3.15;;;;;;;26.54;100.00;97454.78;4842076;29;20064;-63
2023/07/29 02:06:26;;;;;;;5.90;3.80;;;;;;;26.47;100.00;97477.00;4843188;29;20049;-63
2023/07/29 02:08:56;;;;;;;5.40;3.75;;;;;;;26.35;100.00;97512.19;4844381;29;20060;-63
2023/07/29 02:11:27;;;;;;;3.90;3.50;;;;;;;26.38;100.00;97509.63;4832055;29;20137;-63
2023/07/29 02:13:58;;;;;;;6.15;3.72;;;;;;;26.38;100.00;97490.63;4830585;29;20170;-63
2023/07/29 02:16:27;;;;;;;4.53;3.55;;;;;;;26.45;100.00;97475.75;4835498;29;20053;-63
2023/07/29 02:18:57;;;;;;;4.63;3.85;;;;;;;26.58;100.00;97482.88;4829992;29;20058;-63
2023/07/29 02:21:27;;;;;;;4.13;3.42;;;;;;;26.72;100.00;97495.13;4837531;29;20050;-63
2023/07/29 02:23:56;;;;;;;5.68;4.18;;;;;;;26.79;100.00;97511.72;4834588;29;20054;-63
2023/07/29 02:26:26;;;;;;;4.68;4.18;;;;;;;26.87;100.00;97517.44;4819567;29;20088;-63
2023/07/29 02:28:55;;;;;;;5.30;4.10;;;;;;;26.86;100.00;97513.97;4833998;29;20685;-63
2023/07/29 02:31:25;;;;;;;5.03;4.03;;;;;;;27.02;100.00;97519.63;4825696;29;20487;-63
2023/07/29 02:33:55;;;;;;;4.50;3.70;;;;;;;27.41;100.00;97521.16;4832663;29;20055;-63
2023/07/29 02:36:25;;;;;;;3.95;2.72;;;;;;;27.66;100.00;97515.53;4830454;29;20060;-63
2023/07/29 02:38:54;;;;;;;3.58;2.72;;;;;;;27.95;100.00;97503.78;4832344;29;20110;-63
2023/07/29 02:41:24;;;;;;;3.58;3.08;;;;;;;27.96;100.00;97519.00;4823382;29;20168;-63
2023/07/29 02:43:53;;;;;;;3.38;2.85;;;;;;;27.88;100.00;97513.63;4821753;29;20054;-63
2023/07/29 02:46:23;;;;;;;4.22;2.80;;;;;;;27.81;100.00;97533.19;4837058;29;20057;-63
2023/07/29 02:48:52;;;;;;;4.72;3.30;;;;;;;27.76;100.00;97549.72;4835404;29;20449;-63
2023/07/29 02:51:21;;;;;;;5.45;4.15;;;;;;;27.62;100.00;97555.41;4822378;29;20061;-65
2023/07/29 02:53:51;;;;;;;5.03;3.90;;;;;;;27.63;100.00;97556.22;4838634;29;20072;-63
2023/07/29 02:56:20;;;;;;;5.18;4.03;;;;;;;27.78;100.00;97554.84;4823047;29;20060;-63
2023/07/29 02:58:51;;;;;;;5.22;3.97;;;;;;;27.60;100.00;97563.13;4827186;29;20054;-63
2023/07/29 03:01:21;;;;;;;4.57;3.90;;;;;;;27.68;100.00;97558.75;4819715;29;20054;-63
2023/07/29 03:03:50;;;;;;;4.78;3.25;;;;;;;27.70;100.00;97551.84;4814339;29;20077;-63
2023/07/29 03:06:19;;;;;;;5.25;4.00;;;;;;;27.75;100.00;97569.13;4834559;29;20118;-64
2023/07/29 03:08:49;;;;;;;5.28;3.80;;;;;;;27.63;100.00;97581.50;4806911;29;20074;-63
2023/07/29 03:11:18;;;;;;;6.40;4.38;;;;;;;27.33;100.00;97584.53;4822146;29;20046;-63
2023/07/29 03:13:47;;;;;;;7.45;5.20;;;;;;;27.38;100.00;97592.53;4838145;29;20059;-63
2023/07/29 03:16:18;;;;;;;6.60;4.72;;;;;;;27.20;100.00;97598.06;4817346;29;20194;-63
2023/07/29 03:18:53;;;;;;;6.85;5.10;;;;;;;26.91;100.00;97608.88;4827122;29;20069;-63
2023/07/29 03:21:23;;;;;;;6.03;4.88;;;;;;;26.73;100.00;97629.81;4836381;29;20061;-62
2023/07/29 03:23:52;;;;;;;7.07;4.97;;;;;;;26.51;100.00;97627.31;4824907;29;20489;-64
2023/07/29 03:26:22;;;;;;;6.68;4.80;;;;;;;26.30;100.00;97623.66;4822713;29;20054;-64
2023/07/29 03:28:51;;;;;;;4.82;3.90;;;;;;;26.09;100.00;97617.25;4835049;29;20046;-64
2023/07/29 03:31:20;;;;;;;7.05;4.63;;;;;;;25.89;100.00;97614.06;4840892;29;20103;-64
2023/07/29 03:33:50;;;;;;;4.53;4.10;;;;;;;25.72;100.00;97605.91;4843867;29;20100;-64
2023/07/29 03:36:19;;;;;;;8.40;6.00;;;;;;;25.55;100.00;97616.72;4825590;29;20065;-64
2023/07/29 03:38:49;;;;;;;9.20;5.45;;;;;;;25.28;100.00;97627.78;4827596;29;20046;-64
2023/07/29 03:41:19;;;;;;;9.70;6.15;;;;;;;25.23;100.00;97639.56;4823557;29;20117;-64
2023/07/29 03:43:49;;;;;;;13.02;6.75;;;;;;;25.24;100.00;97652.00;4831878;29;20065;-64
2023/07/29 03:46:21;;;;;;;10.35;6.20;;;;;;;25.18;100.00;97653.25;4830630;29;20498;-63
2023/07/29 03:48:51;;;;;;;13.05;7.85;;;;;;;25.08;100.00;97648.13;4830346;29;22210;-64
2023/07/29 03:51:27;;;;;;;10.57;7.13;;;;;;;25.04;100.00;97663.41;4814852;29;20050;-64
2023/07/29 03:53:57;;;;;;;9.95;6.97;;;;;;;24.85;100.00;97693.38;4830399;29;20123;-65
2023/07/29 03:56:27;;;;;;;9.98;7.35;;;;;;;24.82;100.00;97699.41;4813788;29;20050;-66
2023/07/29 03:59:03;;;;;;;12.35;8.50;;;;;;;24.74;100.00;97710.97;4814558;29;20155;-65
2023/07/29 04:01:34;;;;;;;12.65;7.57;;;;;;;24.56;100.00;97731.72;4807836;29;20042;-65
2023/07/29 04:04:04;;;;;;;13.05;7.25;;;;;;;24.46;100.00;97734.66;4806646;29;20051;-65
2023/07/29 04:06:34;;;;;;;11.73;7.25;;;;;;;24.29;100.00;97734.53;4810040;29;20468;-63
2023/07/29 04:09:05;;;;;;;13.02;7.00;;;;;;;24.25;100.00;97730.03;4832696;29;20068;-66
2023/07/29 04:11:34;;;;;;;14.57;7.18;;;;;;;24.22;100.00;97717.88;4815093;29;20181;-67
2023/07/29 04:14:03;;;;;;;11.10;7.38;;;;;;;24.12;100.00;97713.47;4823890;29;20859;-67
2023/07/29 04:16:32;;;;;;;8.85;7.03;;;;;;;24.19;100.00;97706.88;4832703;29;20066;-67
2023/07/29 04:19:04;;;;;;;9.60;6.78;;;;;;;24.12;100.00;97696.44;4822741;29;20885;-67
2023/07/29 04:21:34;;;;;;;9.88;7.47;;;;;;;24.14;100.00;97689.63;4837513;29;20076;-66
2023/07/29 04:24:04;;;;;;;9.20;7.47;;;;;;;24.21;100.00;97689.22;4823615;29;20153;-66
2023/07/29 04:26:33;;;;;;;9.35;6.68;;;;;;;24.28;100.00;97680.69;4839869;29;20137;-66
2023/07/29 04:29:03;;;;;;;10.77;6.70;;;;;;;24.41;100.00;97691.47;4819751;29;20054;-65
2023/07/29 04:31:32;;;;;;;8.77;6.50;;;;;;;24.35;100.00;97681.88;4823447;29;20082;-65
2023/07/29 04:34:02;;;;;;;8.63;6.47;;;;;;;24.27;100.00;97666.34;4822680;29;20062;-67
2023/07/29 04:36:32;;;;;;;8.15;5.80;;;;;;;24.43;100.00;97653.28;4810189;29;20141;-65
2023/07/29 04:39:03;;;;;;;9.13;6.38;;;;;;;24.52;100.00;97648.69;4827258;29;20176;-65
2023/07/29 04:41:32;;;;;;;9.35;5.50;;;;;;;24.65;100.00;97652.47;4824840;29;20062;-66
2023/07/29 04:44:02;;;;;;;8.60;6.30;;;;;;;24.69;100.00;97667.00;4812186;29;20238;-66
2023/07/29 04:46:33;;;;;;;11.07;7.68;;;;;;;24.67;100.00;97686.25;4837092;29;20069;-64
2023/07/29 04:49:03;;;;;;;8.50;6.63;;;;;;;24.54;100.00;97698.75;4828927;29;20114;-66
2023/07/29 04:51:33;;;;;;;9.77;6.95;;;;;;;24.63;100.00;97706.94;4839008;29;20082;-65
2023/07/29 04:54:05;;;;;;;8.80;6.57;;;;;;;24.72;100.00;97715.91;4837499;29;20046;-65
2023/07/29 04:56:35;;;;;;;8.63;6.55;;;;;;;24.68;100.00;97704.09;4808547;29;20078;-64
2023/07/29 04:59:04;;;;;;;9.05;6.40;;;;;;;24.56;100.00;97699.22;4825629;29;20050;-67
2023/07/29 05:01:35;;;;;;;8.55;6.13;;;;;;;24.61;100.00;97704.50;4821400;29;20063;-64
2023/07/29 05:04:06;;;;;;;8.45;6.53;;;;;;;24.71;100.00;97708.88;4836937;29;20058;-67
2023/07/29 05:06:35;;;;;;;9.00;6.50;;;;;;;24.80;100.00;97725.19;4821839;29;20057;-65
2023/07/29 05:09:17;;;;;;;7.95;6.20;;;;;;;24.82;100.00;97734.63;4812993;29;20049;-66
2023/07/29 05:11:47;;;;;;;9.10;6.93;;;;;;;24.88;100.00;97735.31;4821369;29;20054;-64
2023/07/29 05:14:17;;;;;;;11.45;7.45;;;;;;;24.86;100.00;97732.13;4835170;29;20054;-64
2023/07/29 05:16:47;;;;;;;10.35;7.25;;;;;;;24.89;100.00;97726.09;4819819;29;20073;-66
2023/07/29 05:19:17;;;;;;;11.65;7.95;;;;;;;24.90;100.00;97704.13;4837384;29;20050;-65
2023/07/29 05:21:47;;;;;;;9.98;7.63;;;;;;;24.89;100.00;97680.84;4821825;29;20046;-65
2023/07/29 05:24:16;;;;;;;8.88;7.22;;;;;;;24.95;100.00;97676.91;4837783;29;20053;-65
2023/07/29 05:26:45;;;;;;;10.25;7.53;;;;;;;24.90;100.00;97662.69;4824123;29;20162;-65
2023/07/29 05:29:15;;;;;;;13.40;8.50;;;;;;;24.96;100.00;97656.03;4823822;29;20508;-65
2023/07/29 05:31:45;;;;;;;11.52;8.15;;;;;;;24.91;100.00;97643.41;4822102;29;20054;-65
2023/07/29 05:34:14;;;;;;;13.80;9.25;;;;;;;24.67;100.00;97625.88;4823163;29;20069;-66
2023/07/29 05:36:44;;;;;;;13.13;9.70;;;;;;;24.73;100.00;97614.63;4839550;29;20051;-65
2023/07/29 05:39:13;;;;;;;11.82;8.82;;;;;;;24.75;100.00;97636.75;4837639;29;20050;-64
2023/07/29 05:41:43;;;;;;;12.35;9.43;;;;;;;24.75;100.00;97644.06;4834400;29;20061;-66
2023/07/29 05:44:13;;;;;;;11.00;8.23;;;;;;;24.76;100.00;97632.94;4827571;29;20081;-65
2023/07/29 05:46:42;;;;;;;14.57;9.10;;;;;;;24.76;100.00;97634.84;4834576;29;20046;-64
2023/07/29 05:49:12;;;;;;;15.32;11.05;;;;;;;24.92;100.00;97628.75;4808901;29;20046;-65
2023/07/29 05:51:42;;;;;;;14.57;9.30;;;;;;;24.82;100.00;97615.47;4812730;29;20061;-65
2023/07/29 05:54:11;;;;;;;13.48;8.95;;;;;;;24.75;100.00;97608.88;4824341;29;20057;-65
2023/07/29 05:56:41;;;;;;;11.60;8.75;;;;;;;25.00;100.00;97600.13;4829519;29;20058;-65
2023/07/29 05:59:10;;;;;;;15.52;8.70;;;;;;;25.06;100.00;97582.59;4833185;29;20058;-64
2023/07/29 06:01:40;;;;;;;11.07;8.93;;;;;;;25.15;100.00;97569.88;4807164;29;20165;-65
2023/07/29 06:04:10;;;;;;;12.68;8.48;;;;;;;25.14;100.00;97575.63;4817628;29;20539;-65
2023/07/29 06:06:39;;;;;;;15.30;9.65;;;;;;;25.07;100.00;97576.06;4806571;29;20163;-65
2023/07/29 06:09:08;;;;;;;13.25;7.90;;;;;;;25.15;100.00;97577.19;4822995;29;20056;-65
2023/07/29 06:11:38;;;;;;;13.73;8.75;;;;;;;25.13;100.00;97565.88;4836749;29;20058;-63
2023/07/29 06:14:07;;;;;;;10.85;8.38;;;;;;;25.15;100.00;97550.09;4820688;29;20054;-65
2023/07/29 06:16:37;;;;;;;12.05;8.43;;;;;;;25.20;100.00;97539.91;4836190;29;20054;-65
2023/07/29 06:19:08;;;;;;;12.57;8.70;;;;;;;25.34;100.00;97537.88;4819780;29;20053;-65
2023/07/29 06:21:39;;;;;;;12.18;8.95;;;;;;;25.43;100.00;97529.75;4822216;29;20498;-64
2023/07/29 06:24:09;;;;;;;10.90;8.48;;;;;;;25.31;100.00;97516.84;4796330;29;20050;-65
2023/07/29 06:26:38;;;;;;;13.60;9.48;;;;;;;25.40;100.00;97506.78;4819651;29;20080;-65
2023/07/29 06:29:08;;;;;;;11.13;9.20;;;;;;;25.42;100.00;97501.03;4819589;29;20046;-65
2023/07/29 06:31:37;;;;;;;12.20;8.98;;;;;;;25.48;100.00;97484.31;4822831;29;20054;-66
2023/07/29 06:34:06;;;;;;;16.02;10.48;;;;;;;25.51;100.00;97477.44;4818203;29;20063;-66
2023/07/29 06:36:36;;;;;;;11.50;8.73;;;;;;;25.39;100.00;97477.28;4823053;29;20054;-66
2023/07/29 06:39:07;;;;;;;9.75;7.78;;;;;;;25.42;100.00;97476.63;4825202;29;20486;-65
2023/07/29 06:41:36;;;;;;;10.70;8.48;;;;;;;25.69;100.00;97489.91;4823748;29;20569;-69
2023/07/29 06:44:06;;;;;;;15.57;9.45;;;;;;;25.75;100.00;97513.06;4821698;29;20062;-68
2023/07/29 06:46:36;;;;;;;14.68;10.40;;;;;;;25.87;100.00;97529.50;4820976;29;20205;-67
2023/07/29 06:49:06;;;;;;;14.30;10.13;;;;;;;25.88;100.00;97533.81;4820372;29;20056;-68
2023/07/29 06:51:35;;;;;;;13.73;10.52;;;;;;;25.92;100.00;97534.75;4822369;29;20061;-68
2023/07/29 06:54:05;;;;;;;15.30;11.13;;;;;;;25.99;100.00;97528.81;4823627;29;20057;-69
2023/07/29 06:56:34;;;;;;;14.10;10.68;;;;;;;25.97;100.00;97524.84;4822374;29;20828;-68
2023/07/29 06:59:04;;;;;;;11.52;10.15;;;;;;;26.05;100.00;97537.59;4833010;29;20082;-65
2023/07/29 07:01:34;;;;;;;14.75;10.90;;;;;;;26.11;100.00;97545.25;4823697;29;20073;-64
2023/07/29 07:04:03;;;;;;;15.15;11.18;;;;;;;26.14;100.00;97550.06;4824310;29;20595;-65
2023/07/29 07:06:33;;;;;;;13.90;10.88;;;;;;;26.15;100.00;97548.13;4824621;29;20065;-65
2023/07/29 07:09:04;;;;;;;16.10;11.18;;;;;;;26.17;100.00;97556.75;4820812;29;20114;-64
2023/07/29 07:11:33;;;;;;;14.73;11.38;;;;;;;26.11;100.00;97553.38;4823175;29;20054;-66
2023/07/29 07:14:03;;;;;;;15.05;11.90;;;;;;;26.10;100.00;97549.09;4827070;29;20439;-65
2023/07/29 07:16:32;;;;;;;17.55;11.52;;;;;;;26.02;100.00;97535.53;4830380;29;20057;-64
2023/07/29 07:19:02;;;;;;;12.20;10.00;;;;;;;26.19;100.00;97532.81;4841105;29;20140;-64
2023/07/29 07:21:32;;;;;;;17.67;11.05;;;;;;;26.18;100.00;97523.88;4823109;29;20068;-64
2023/07/29 07:24:01;;;;;;;13.70;11.30;;;;;;;26.27;100.00;97519.25;4825317;29;20748;-66
2023/07/29 07:26:31;;;;;;;14.98;11.13;;;;;;;26.30;100.00;97515.06;4827781;29;20603;-65
2023/07/29 07:29:00;;;;;;;17.33;11.32;;;;;;;26.17;100.00;97499.75;4826929;29;20058;-66
2023/07/29 07:31:35;;;;;;;15.15;10.98;;;;;;;26.27;100.00;97499.44;4840463;29;20049;-65
2023/07/29 07:34:04;;;;;;;14.77;11.00;;;;;;;26.27;100.00;97496.72;4837241;29;20577;-65
2023/07/29 07:36:35;;;;;;;14.07;11.50;;;;;;;26.43;100.00;97494.28;4841484;29;20133;-66
2023/07/29 07:39:06;;;;;;;14.15;10.73;;;;;;;26.43;100.00;97489.63;4836155;29;20058;-65
2023/07/29 07:41:35;;;;;;;13.95;10.85;;;;;;;26.43;100.00;97477.97;4841646;29;20064;-65
2023/07/29 07:44:07;;;;;;;13.85;10.48;;;;;;;26.44;100.00;97479.59;4840734;29;20115;-65
2023/07/29 07:46:37;;;;;;;13.88;10.25;;;;;;;26.45;100.00;97473.84;4823825;29;20498;-65
2023/07/29 07:49:07;;;;;;;12.00;9.38;;;;;;;26.52;100.00;97473.31;4834144;29;20060;-68
2023/07/29 07:51:37;;;;;;;10.38;8.85;;;;;;;26.50;100.00;97470.16;4834924;29;20053;-66
2023/07/29 07:54:06;;;;;;;11.90;9.07;;;;;;;26.62;100.00;97473.75;4837306;29;20064;-66
2023/07/29 07:56:36;;;;;;;12.43;9.02;;;;;;;26.70;100.00;97475.63;4839344;29;20126;-65
2023/07/29 07:59:06;;;;;;;10.80;8.82;;;;;;;26.69;100.00;97474.03;4819385;29;20072;-66
2023/07/29 08:01:37;;;;;;;9.88;7.97;;;;;;;26.71;100.00;97479.94;4839597;29;20684;-66
2023/07/29 08:04:07;;;;;;;10.00;7.82;;;;;;;26.81;100.00;97485.03;4841526;29;20140;-65
2023/07/29 08:06:37;;;;;;;11.10;7.97;;;;;;;26.96;100.00;97478.25;4822294;29;20110;-65
2023/07/29 08:09:07;;;;;;;10.07;8.38;;;;;;;26.99;100.00;97484.97;4837786;29;20114;-64
2023/07/29 08:11:36;;;;;;;9.10;7.40;;;;;;;27.03;100.00;97483.19;4842154;29;20082;-66
2023/07/29 08:14:06;;;;;;;9.93;7.53;;;;;;;27.02;100.00;97485.09;4839450;29;20057;-64
2023/07/29 08:16:35;;;;;;;9.95;7.55;;;;;;;27.07;100.00;97470.53;4841276;29;20122;-67
2023/07/29 08:19:07;;;;;;;10.40;7.97;;;;;;;27.10;100.00;97467.94;4837024;29;20057;-69
2023/07/29 08:21:37;;;;;;;8.77;7.32;;;;;;;27.19;100.00;97470.59;4822741;29;20048;-67
2023/07/29 08:24:07;;;;;;;8.70;6.72;;;;;;;27.31;100.00;97484.25;4839157;29;20166;-71
2023/07/29 08:26:37;;;;;;;9.80;7.07;;;;;;;27.33;100.00;97490.19;4825781;29;20145;-69
2023/07/29 08:29:06;;;;;;;8.20;7.13;;;;;;;27.36;100.00;97481.34;4821818;29;20046;-69
2023/07/29 08:31:36;;;;;;;11.25;7.80;;;;;;;27.41;100.00;97469.47;4835714;29;20045;-69
2023/07/29 08:34:06;;;;;;;10.95;8.00;;;;;;;27.47;100.00;97471.69;4838531;29;20049;-67
2023/07/29 08:36:35;;;;;;;13.07;8.50;;;;;;;27.43;100.00;97473.47;4839187;29;20823;-67
2023/07/29 08:39:06;;;;;;;9.55;8.18;;;;;;;27.46;100.00;97483.69;4829444;29;20050;-66
2023/07/29 08:42:06;;;;;;;10.00;8.38;;;;;;;27.45;100.00;97487.53;4823386;29;20176;-70
2023/07/29 08:44:44;;;;;;;12.27;7.63;;;;;;;27.43;100.00;97480.84;4815398;29;20049;-72
2023/07/29 08:47:13;;;;;;;10.90;7.90;;;;;;;27.43;100.00;97483.56;4834324;29;20053;-67
2023/07/29 08:49:46;;;;;;;8.77;7.70;;;;;;;27.50;100.00;97490.06;4836983;29;20076;-68
2023/07/29 08:52:17;;;;;;;10.32;7.82;;;;;;;27.55;100.00;97489.88;4819811;29;20145;-66
2023/07/29 08:54:47;;;;;;;10.48;8.60;;;;;;;27.45;100.00;97492.97;4820512;29;20225;-68
2023/07/29 08:57:17;;;;;;;10.65;8.95;;;;;;;27.40;100.00;97503.22;4828713;29;20157;-65
2023/07/29 08:59:47;;;;;;;10.98;8.90;;;;;;;27.40;100.00;97484.19;4833265;29;20053;-65
2023/07/29 09:02:16;;;;;;;12.70;10.00;;;;;;;27.38;100.00;97487.25;4805250;29;20858;-67
2023/07/29 09:04:46;;;;;;;12.10;9.88;;;;;;;27.35;100.00;97479.75;4820071;29;20423;-66
2023/07/29 09:07:16;;;;;;;14.15;10.23;;;;;;;27.41;100.00;97477.63;4837036;29;20738;-70
2023/07/29 09:09:49;;;;;;;14.75;10.60;;;;;;;27.50;100.00;97473.75;4808445;29;20042;-68
2023/07/29 09:12:19;;;;;;;15.18;10.68;;;;;;;27.54;100.00;97471.16;4822174;29;20596;-68
2023/07/29 09:14:53;;;;;;;14.10;10.52;;;;;;;27.41;100.00;97473.00;4819464;29;20061;-67
2023/07/29 09:17:23;;;;;;;13.52;10.27;;;;;;;27.45;100.00;97465.75;4697261;29;3938932;-66
2023/07/29 09:19:53;;;;;;;11.98;9.75;;;;;;;27.53;100.00;97475.00;4816023;29;20049;-67
2023/07/29 09:22:25;;;;;;;11.98;9.40;;;;;;;27.62;100.00;97467.56;4801813;29;20070;-68
2023/07/29 09:24:58;;;;;;;11.68;8.95;;;;;;;27.61;100.00;97468.72;4808105;29;20705;-67
2023/07/29 09:27:31;;;;;;;14.32;8.77;;;;;;;27.42;100.00;97485.47;4808055;29;20782;-68
2023/07/29 09:30:02;;;;;;;13.20;10.02;;;;;;;27.50;100.00;97481.91;4792283;29;20859;-67
2023/07/29 09:32:32;;;;;;;11.13;8.32;;;;;;;27.63;100.00;97494.44;4810588;29;20053;-66
2023/07/29 09:35:02;;;;;;;12.90;9.75;;;;;;;27.73;100.00;97478.84;4816679;29;20487;-67
2023/07/29 09:37:32;;;;;;;13.70;10.43;;;;;;;27.68;100.00;97474.41;4815818;29;20065;-65
2023/07/29 09:40:03;;;;;;;11.50;9.38;;;;;;;27.77;100.00;97477.06;4812265;29;20394;-67
2023/07/29 09:42:33;;;;;;;15.63;11.05;;;;;;;27.83;100.00;97479.25;4818593;29;20057;-66
2023/07/29 09:45:03;;;;;;;15.70;11.20;;;;;;;27.89;100.00;97468.94;4813584;29;20081;-66
2023/07/29 09:47:32;;;;;;;16.00;12.10;;;;;;;27.85;100.00;97468.00;4813508;29;20054;-66
2023/07/29 09:50:02;;;;;;;15.38;11.75;;;;;;;27.89;100.00;97461.56;4817142;29;20522;-67
2023/07/29 09:52:31;;;;;;;17.92;13.13;;;;;;;27.95;100.00;97462.94;4811724;29;20064;-66
2023/07/29 09:55:01;;;;;;;18.00;13.75;;;;;;;27.93;100.00;97453.50;4813379;29;20080;-65
2023/07/29 09:57:30;;;;;;;15.73;12.82;;;;;;;27.97;100.00;97447.06;4814405;29;20624;-67
2023/07/29 10:00:04;;;;;;;14.65;11.55;;;;;;;28.05;100.00;97448.13;4812718;29;20111;-72
2023/07/29 10:02:37;;;;;;;17.00;12.25;;;;;;;28.08;100.00;97444.72;4814884;29;20115;-70
2023/07/29 10:05:09;;;;;;;15.02;12.32;;;;;;;28.09;100.00;97444.41;4809686;29;20785;-69
2023/07/29 10:07:40;;;;;;;17.08;12.15;;;;;;;28.13;100.00;97445.34;4812796;29;20677;-69
2023/07/29 10:10:11;;;;;;;19.55;14.00;;;;;;;28.13;100.00;97441.81;4813071;29;20145;-67
2023/07/29 10:12:42;;;;;;;19.63;15.68;;;;;;;28.09;100.00;97440.88;4814876;29;20054;-69
2023/07/29 10:15:12;;;;;;;18.17;14.73;;;;;;;28.06;100.00;97450.50;4815909;29;20062;-69
2023/07/29 10:17:41;;;;;;;17.45;13.85;;;;;;;27.95;100.00;97449.34;4819691;29;20115;-65
2023/07/29 10:20:11;;;;;;;18.25;13.48;;;;;;;27.96;100.00;97433.81;4817705;29;20061;-69
2023/07/29 10:22:43;;;;;;;15.98;12.27;;;;;;;27.95;100.00;97451.25;4815012;29;20058;-69
2023/07/29 10:25:15;;;;;;;15.02;10.70;;;;;;;27.91;100.00;97451.16;4815517;29;20045;-69
2023/07/29 10:27:53;;;;;;;16.35;11.43;;;;;;;27.93;100.00;97445.34;4822680;29;20151;-71
2023/07/29 10:30:25;;;;;;;14.93;11.48;;;;;;;27.92;100.00;97449.22;4820935;29;20058;-68
2023/07/29 10:32:58;;;;;;;12.38;10.20;;;;;;;27.72;100.00;97444.59;4815455;29;20066;-66
2023/07/29 10:35:28;;;;;;;;;;;;;;;27.71;100.00;97438.34;4816233;29;20475;-68
2023/07/29 10:37:57;;;;;;;13.32;9.35;;;;;;;27.77;100.00;97447.91;4813389;29;19928;-68
2023/07/29 10:40:43;;;;;;;13.57;10.18;;;;;;;27.81;100.00;97454.28;4811957;29;20058;-68
2023/07/29 10:43:14;;;;;;;12.20;9.88;;;;;;;27.79;100.00;97447.59;4799912;29;20050;-68
2023/07/29 10:45:44;;;;;;;13.27;9.05;;;;;;;27.85;100.00;97451.69;4813581;29;20073;-68
2023/07/29 10:48:33;;;;;;;12.15;9.50;;;;;;;27.76;100.00;97451.75;4814904;29;20098;-68
2023/07/29 10:51:29;;;;;;;13.48;9.88;;;;;;;27.80;100.00;97454.59;4814423;29;20061;-68
2023/07/29 10:54:16;;;;;;;14.48;11.18;;;;;;;27.85;100.00;97451.69;4815906;29;20069;-67
2023/07/29 10:56:50;;;;;;;14.40;10.93;;;;;;;27.86;100.00;97451.34;4833626;29;20097;-67
2023/07/29 10:59:20;;;;;;;14.20;10.68;;;;;;;27.86;100.00;97448.63;4811790;29;20480;-68
2023/07/29 11:02:02;;;;;;;14.40;11.93;;;;;;;27.91;100.00;97442.97;4814321;29;20057;-68
2023/07/29 11:04:46;;;;;;;17.90;11.10;;;;;;;28.01;100.00;97442.56;4813861;29;20091;-67
2023/07/29 11:07:17;;;;;;;16.23;11.02;;;;;;;28.10;100.00;97446.00;4816690;29;20597;-68
2023/07/29 11:09:50;;;;;;;16.08;11.63;;;;;;;28.02;100.00;97435.97;4828122;29;20081;-67
2023/07/29 11:12:50;;;;;;;17.25;11.35;;;;;;;28.01;100.00;97437.13;4817922;29;20156;-68
2023/07/29 11:15:26;;;;;;;15.25;10.80;;;;;;;28.02;100.00;97443.34;4824008;29;20050;-67
2023/07/29 11:17:57;;;;;;;13.55;10.70;;;;;;;28.13;100.00;97444.53;4815028;29;20474;-68
2023/07/29 11:20:28;;;;;;;12.80;10.13;;;;;;;28.14;100.00;97440.69;4822781;29;20061;-67
2023/07/29 11:23:00;;;;;;;14.65;10.90;;;;;;;28.16;100.00;97448.50;4819729;29;20045;-67
2023/07/29 11:25:33;;;;;;;12.05;10.07;;;;;;;28.05;100.00;97439.97;4821462;29;20062;-66
2023/07/29 11:28:02;;;;;;;13.47;10.07;;;;;;;28.06;100.00;97445.06;4818924;29;20111;-67
2023/07/29 11:30:39;;;;;;;12.70;10.60;;;;;;;28.09;100.00;97451.75;4815191;29;20050;-68
2023/07/29 11:33:08;;;;;;;13.13;9.45;;;;;;;28.12;100.00;97448.38;4813482;29;20462;-68
2023/07/29 11:35:39;;;;;;;12.43;10.07;;;;;;;28.04;100.00;97444.59;4821019;29;20046;-68